Time;durP1;ratioP1;P1;durP2;ratioP2;P2;SDS_P1;SDS_P2;PMS_P1;PMS_P2;Temp;Humidity;BMP_temperature;BMP_pressure;BME280_temperature;BME280_humidity;BME280_pressure;Samples;Min_cycle;Max_cycle;Signal;HPM_P1;HPM_P2
2021/10/27 00:03:47;;;;;;;7.87;5.77;;;;;;;11.19;56.11;98812.88;8411439;28;20238;-65
2021/10/27 00:07:50;;;;;;;5.80;5.30;;;;;;;11.21;55.80;98813.69;8415528;28;20234;-65
2021/10/27 00:11:53;;;;;;;6.90;5.53;;;;;;;11.20;55.77;98813.75;8415398;28;20230;-64
2021/10/27 00:15:58;;;;;;;9.80;6.10;;;;;;;11.10;55.83;98813.19;8414436;28;20237;-64
2021/10/27 00:20:00;;;;;;;7.77;6.13;;;;;;;11.00;55.99;98815.25;8390786;28;20232;-64
2021/10/27 00:24:04;;;;;;;9.03;7.10;;;;;;;11.09;55.94;98803.75;8355200;28;20232;-64
2021/10/27 00:28:07;;;;;;;7.93;7.10;;;;;;;10.99;56.26;98804.94;8357829;28;20236;-63
2021/10/27 00:32:11;;;;;;;10.97;7.70;;;;;;;10.92;55.54;98810.31;8357484;28;20553;-63
2021/10/27 00:36:15;;;;;;;13.00;8.73;;;;;;;10.86;56.13;98807.09;8364278;28;20238;-64
2021/10/27 00:40:18;;;;;;;11.57;8.87;;;;;;;10.88;56.53;98805.28;8356426;28;20239;-65
2021/10/27 00:44:22;;;;;;;11.60;8.90;;;;;;;10.94;56.58;98803.31;8372385;28;20231;-64
2021/10/27 00:48:26;;;;;;;11.97;9.07;;;;;;;10.88;56.60;98800.94;8381718;28;20240;-64
2021/10/27 00:52:29;;;;;;;14.73;9.83;;;;;;;10.89;56.35;98810.44;8381282;28;20238;-64
2021/10/27 00:56:33;;;;;;;12.47;9.63;;;;;;;10.92;56.50;98815.50;8380515;28;20250;-64
2021/10/27 01:00:36;;;;;;;18.07;9.80;;;;;;;10.85;56.28;98814.00;8380959;28;20227;-64
2021/10/27 01:04:41;;;;;;;12.97;9.37;;;;;;;10.87;56.05;98817.41;8380781;28;20236;-64
2021/10/27 01:08:44;;;;;;;13.20;9.20;;;;;;;10.81;56.20;98811.56;8380745;28;20238;-64
2021/10/27 01:12:47;;;;;;;13.03;8.80;;;;;;;10.82;56.00;98810.66;8380706;28;20228;-63
2021/10/27 01:16:50;;;;;;;13.70;8.70;;;;;;;10.72;55.76;98813.53;8380511;28;20239;-63
2021/10/27 01:20:54;;;;;;;12.47;8.57;;;;;;;10.69;56.58;98815.38;8380573;28;20242;-63
2021/10/27 01:24:57;;;;;;;10.37;8.20;;;;;;;10.74;56.34;98816.09;8380489;28;20235;-63
2021/10/27 01:29:00;;;;;;;8.37;7.50;;;;;;;10.71;56.36;98826.53;8386258;28;20231;-63
2021/10/27 01:33:03;;;;;;;7.83;7.03;;;;;;;10.70;56.45;98824.84;8387313;28;20421;-63
2021/10/27 01:37:07;;;;;;;9.30;7.83;;;;;;;10.70;56.42;98819.66;8387032;28;20243;-63
2021/10/27 01:41:10;;;;;;;7.77;6.90;;;;;;;10.75;56.34;98838.50;8386956;28;20243;-63
2021/10/27 01:45:14;;;;;;;7.97;7.17;;;;;;;10.72;55.03;98833.44;8395852;28;20226;-64
2021/10/27 01:49:17;;;;;;;7.23;6.40;;;;;;;10.60;55.26;98839.81;8403308;28;20237;-64
2021/10/27 01:53:21;;;;;;;8.80;7.30;;;;;;;10.54;55.72;98840.84;8403426;28;20227;-64
2021/10/27 01:57:24;;;;;;;9.13;7.23;;;;;;;10.50;55.61;98833.22;8402741;28;20238;-63
2021/10/27 02:01:27;;;;;;;8.10;7.20;;;;;;;10.47;55.70;98836.78;8402716;28;20561;-64
2021/10/27 02:05:30;;;;;;;7.90;7.07;;;;;;;10.43;55.91;98837.72;8402858;28;20409;-64
2021/10/27 02:09:36;;;;;;;9.67;6.83;;;;;;;10.48;55.75;98840.19;8402937;28;20238;-63
2021/10/27 02:13:39;;;;;;;8.20;7.40;;;;;;;10.42;56.11;98842.97;8402159;28;20418;-64
2021/10/27 02:17:42;;;;;;;7.80;7.00;;;;;;;10.37;56.13;98845.69;8402228;28;20427;-63
2021/10/27 02:21:44;;;;;;;7.13;6.30;;;;;;;10.37;56.96;98851.72;8402617;28;20234;-64
2021/10/27 02:25:49;;;;;;;7.20;6.50;;;;;;;10.40;56.57;98857.72;8402898;28;20442;-64
2021/10/27 02:29:52;;;;;;;9.80;7.17;;;;;;;10.38;57.03;98852.56;8401928;28;20249;-63
2021/10/27 02:33:54;;;;;;;24.57;7.23;;;;;;;10.30;57.00;98847.63;8401739;28;20227;-63
2021/10/27 02:37:57;;;;;;;9.07;8.17;;;;;;;10.30;57.48;98854.50;8400888;28;20237;-63
2021/10/27 02:42:02;;;;;;;8.13;7.33;;;;;;;10.30;56.83;98857.97;8401655;28;20449;-64
2021/10/27 02:46:05;;;;;;;10.17;7.30;;;;;;;10.23;57.15;98856.44;8401216;28;20234;-63
2021/10/27 02:50:09;;;;;;;7.07;6.37;;;;;;;10.22;57.11;98852.13;8401558;28;20289;-63
2021/10/27 02:54:12;;;;;;;6.73;6.13;;;;;;;10.23;56.97;98853.84;8400965;28;20227;-65
2021/10/27 02:58:20;;;;;;;6.83;6.13;;;;;;;10.21;57.09;98852.19;8401000;28;20234;-64
2021/10/27 03:02:23;;;;;;;8.20;6.90;;;;;;;10.20;56.77;98856.50;8401072;28;20239;-63
2021/10/27 03:06:26;;;;;;;9.37;7.30;;;;;;;10.20;56.51;98850.47;8400870;28;20545;-64
2021/10/27 03:10:29;;;;;;;12.00;8.97;;;;;;;10.05;56.30;98846.59;8401116;28;20253;-63
2021/10/27 03:14:33;;;;;;;9.87;8.67;;;;;;;10.06;56.44;98843.13;8400707;28;20237;-63
2021/10/27 03:18:36;;;;;;;12.50;8.57;;;;;;;10.08;57.11;98846.50;8400463;28;20235;-63
2021/10/27 03:22:39;;;;;;;11.70;10.23;;;;;;;9.96;56.24;98852.88;8400672;28;20409;-64
2021/10/27 03:26:42;;;;;;;12.13;10.60;;;;;;;9.91;55.50;98850.41;8400570;28;20231;-63
2021/10/27 03:30:47;;;;;;;11.73;10.27;;;;;;;9.86;55.74;98847.13;8400658;28;20231;-63
2021/10/27 03:34:51;;;;;;;11.10;9.53;;;;;;;9.89;55.57;98844.44;8400486;28;20423;-63
2021/10/27 03:38:54;;;;;;;12.47;9.80;;;;;;;9.92;55.54;98840.94;8400563;28;20246;-63
2021/10/27 03:42:56;;;;;;;14.57;11.33;;;;;;;9.93;55.37;98837.44;8400194;28;20236;-63
2021/10/27 03:47:01;;;;;;;13.00;10.33;;;;;;;9.89;55.26;98848.75;8415160;28;20234;-63
2021/10/27 03:51:04;;;;;;;11.60;9.47;;;;;;;9.75;55.06;98854.31;8416304;28;20238;-64
2021/10/27 03:55:07;;;;;;;10.20;9.10;;;;;;;9.88;54.28;98852.22;8416407;28;20537;-64
2021/10/27 03:59:11;;;;;;;9.13;8.03;;;;;;;9.83;54.18;98869.63;8415917;28;20431;-64
2021/10/27 04:03:21;;;;;;;7.30;6.53;;;;;;;9.75;53.25;98869.84;8390938;28;20522;-64
2021/10/27 04:07:23;;;;;;;7.50;5.47;;;;;;;9.62;54.41;98868.47;8382491;28;20235;-63
2021/10/27 04:11:26;;;;;;;4.60;4.20;;;;;;;9.65;54.29;98881.28;8382502;28;20239;-63
2021/10/27 04:15:29;;;;;;;5.47;4.50;;;;;;;9.52;54.36;98875.59;8382201;28;20258;-63
2021/10/27 04:19:34;;;;;;;4.80;4.40;;;;;;;9.61;53.86;98872.75;8382156;28;20250;-63
2021/10/27 04:23:37;;;;;;;5.33;4.83;;;;;;;9.54;54.18;98873.84;8381735;28;20239;-63
2021/10/27 04:27:41;;;;;;;6.10;5.50;;;;;;;9.51;54.78;98869.56;8381910;28;20392;-63
2021/10/27 04:31:43;;;;;;;10.47;7.23;;;;;;;9.51;55.25;98877.31;8381489;28;20239;-63
2021/10/27 04:35:52;;;;;;;7.90;7.03;;;;;;;9.57;55.01;98869.41;8381876;28;20235;-63
2021/10/27 04:39:55;;;;;;;18.27;8.20;;;;;;;9.53;56.21;98872.97;8381423;28;20231;-63
2021/10/27 04:43:57;;;;;;;9.23;8.03;;;;;;;9.58;56.09;98867.69;8381426;28;20238;-63
2021/10/27 04:48:00;;;;;;;11.57;8.47;;;;;;;9.56;56.40;98866.88;8381303;28;20250;-63
2021/10/27 04:52:07;;;;;;;12.53;9.37;;;;;;;9.58;56.48;98868.53;8381239;28;20553;-63
2021/10/27 04:56:09;;;;;;;10.80;9.53;;;;;;;9.46;57.43;98871.44;8380634;28;20426;-64
2021/10/27 05:00:13;;;;;;;24.93;9.30;;;;;;;9.46;57.68;98870.56;8393568;28;20216;-64
2021/10/27 05:04:16;;;;;;;14.03;8.57;;;;;;;9.50;57.84;98869.59;8396892;28;20237;-63
2021/10/27 05:08:22;;;;;;;9.23;7.90;;;;;;;9.56;57.30;98864.28;8383492;28;20662;-64
2021/10/27 05:12:25;;;;;;;59.77;8.57;;;;;;;9.17;59.38;98866.97;8389969;28;20416;-63
2021/10/27 05:16:28;;;;;;;14.30;8.10;;;;;;;9.24;58.72;98867.69;8383411;28;20537;-63
2021/10/27 05:20:31;;;;;;;81.67;9.43;;;;;;;9.17;60.22;98872.16;8385853;28;20235;-63
2021/10/27 05:24:36;;;;;;;18.17;8.53;;;;;;;9.38;59.85;98881.09;8383611;28;20233;-64
2021/10/27 05:28:38;;;;;;;14.33;8.67;;;;;;;9.47;59.83;98873.13;8380212;28;20235;-63
2021/10/27 05:32:42;;;;;;;13.30;8.37;;;;;;;9.58;59.56;98881.47;8379995;28;20234;-64
2021/10/27 05:36:47;;;;;;;14.70;8.17;;;;;;;9.63;59.32;98872.72;8380403;28;20235;-63
2021/10/27 05:40:51;;;;;;;12.73;8.30;;;;;;;9.56;59.64;98875.47;8380079;28;20257;-64
2021/10/27 05:44:56;;;;;;;9.70;8.30;;;;;;;9.61;60.03;98877.09;8400456;28;20537;-63
2021/10/27 05:49:04;;;;;;;13.07;8.53;;;;;;;9.71;59.73;98882.00;8396620;28;20245;-63
2021/10/27 05:57:28;;;;;;;8.27;7.47;;;;;;;9.84;59.40;98876.47;8352781;28;20542;-64
2021/10/27 06:01:31;;;;;;;8.33;7.53;;;;;;;9.97;59.14;98888.19;8346636;28;20244;-63
2021/10/27 06:05:35;;;;;;;11.20;9.13;;;;;;;9.92;59.41;98888.34;8346698;28;20232;-64
2021/10/27 06:09:38;;;;;;;16.60;12.27;;;;;;;9.94;59.54;98891.72;8347054;28;20255;-64
2021/10/27 06:13:45;;;;;;;19.67;12.90;;;;;;;10.06;59.58;98894.88;8349749;28;20239;-63
2021/10/27 06:17:48;;;;;;;9.37;8.37;;;;;;;10.04;59.13;98905.25;8352840;28;20232;-63
2021/10/27 06:21:51;;;;;;;8.37;7.57;;;;;;;9.98;59.79;98911.47;8352763;28;20581;-64
2021/10/27 06:25:54;;;;;;;8.13;7.40;;;;;;;10.05;59.89;98917.31;8352707;28;20228;-63
2021/10/27 06:30:04;;;;;;;8.13;7.43;;;;;;;10.08;59.30;98913.78;8352546;28;20547;-63
2021/10/27 06:34:21;;;;;;;9.13;8.20;;;;;;;10.15;59.63;98936.03;8352284;28;20228;-63
2021/10/27 06:47:03;;;;;;;12.30;10.60;;;;;;;9.34;62.50;98933.78;8385147;28;20231;-63
2021/10/27 06:51:06;;;;;;;14.97;11.73;;;;;;;9.61;61.66;98931.41;8385055;28;20235;-64
2021/10/27 06:55:09;;;;;;;13.93;11.07;;;;;;;9.66;61.23;98937.31;8384830;28;20239;-63
2021/10/27 06:59:15;;;;;;;24.43;18.53;;;;;;;9.83;60.93;98935.16;8384787;28;20231;-64
2021/10/27 07:16:25;;;;;;;14.57;12.00;;;;;;;9.74;61.88;98966.41;8402207;28;20534;-64
2021/10/27 07:20:29;;;;;;;17.97;12.17;;;;;;;9.78;62.64;98965.44;8400675;28;20231;-63
2021/10/27 07:24:35;;;;;;;19.47;11.83;;;;;;;9.97;61.86;98981.34;8399752;28;20227;-63
2021/10/27 07:28:38;;;;;;;17.73;12.57;;;;;;;9.93;62.07;98980.59;8400393;28;20241;-64
2021/10/27 07:32:42;;;;;;;23.10;13.07;;;;;;;9.48;63.79;98988.59;8400311;28;20230;-63
2021/10/27 07:41:06;;;;;;;25.50;19.67;;;;;;;9.77;62.79;98993.06;8399804;28;20230;-63
2021/10/27 07:45:12;;;;;;;22.50;12.63;;;;;;;10.18;61.77;98986.00;8399714;28;20238;-63
2021/10/27 07:49:15;;;;;;;17.40;12.60;;;;;;;10.32;61.43;98992.56;8399138;28;20233;-64
2021/10/27 07:53:19;;;;;;;19.33;13.70;;;;;;;10.36;61.46;98984.66;8399320;28;20235;-64
2021/10/27 07:57:22;;;;;;;18.17;14.07;;;;;;;10.27;62.38;98991.81;8399191;28;20239;-64
2021/10/27 08:01:25;;;;;;;16.13;12.00;;;;;;;10.43;61.88;98992.25;8399563;28;20231;-63
2021/10/27 08:05:30;;;;;;;16.57;13.60;;;;;;;10.22;62.68;98989.31;8399304;28;20277;-63
2021/10/27 08:09:35;;;;;;;23.20;19.60;;;;;;;10.48;62.50;98993.00;8398960;28;20430;-63
2021/10/27 08:13:37;;;;;;;19.00;14.80;;;;;;;10.54;62.16;99000.59;8399198;28;20556;-63
2021/10/27 08:17:41;;;;;;;17.50;14.43;;;;;;;10.27;63.53;99004.75;8399061;28;20230;-63
2021/10/27 08:21:45;;;;;;;14.73;13.30;;;;;;;10.74;62.52;99007.81;8398674;28;20234;-64
2021/10/27 08:25:52;;;;;;;15.03;12.33;;;;;;;10.76;62.36;99006.88;8398698;28;20227;-63
2021/10/27 08:29:57;;;;;;;17.83;9.67;;;;;;;12.91;62.54;99003.34;8403303;28;20234;-65
2021/10/27 08:34:08;;;;;;;12.90;9.93;;;;;;;13.11;58.61;99003.41;8415010;28;20409;-65
2021/10/27 08:38:11;;;;;;;16.73;11.87;;;;;;;12.39;58.82;99002.63;8414392;28;20247;-65
2021/10/27 08:42:16;;;;;;;19.03;13.13;;;;;;;12.02;59.22;99009.94;8414067;28;20222;-66
2021/10/27 08:46:19;;;;;;;17.23;13.33;;;;;;;11.85;59.30;99005.25;8397593;28;20235;-66
2021/10/27 08:50:24;;;;;;;16.07;12.77;;;;;;;11.55;61.36;99010.53;8397843;28;20236;-64
2021/10/27 08:54:27;;;;;;;14.83;12.40;;;;;;;11.60;60.96;99005.22;8395230;28;20219;-64
2021/10/27 08:58:36;;;;;;;16.23;11.20;;;;;;;11.99;60.58;98996.19;8397371;28;20554;-64
2021/10/27 09:07:14;;;;;;;15.97;11.33;;;;;;;12.27;60.13;98993.50;8397423;28;20568;-61
2021/10/27 09:38:00;;;;;;;19.53;13.13;;;;;;;11.92;63.33;98974.81;8396830;28;20235;-61
2021/10/27 09:42:23;;;;;;;19.90;13.30;;;;;;;11.85;63.28;98974.13;8397306;28;20281;-61
2021/10/27 09:55:47;;;;;;;16.93;13.43;;;;;;;12.37;62.81;98968.06;8386615;28;20239;-61
2021/10/27 10:04:24;;;;;;;17.10;12.27;;;;;;;12.58;62.96;98959.47;8385812;28;20232;-65
2021/10/27 10:08:34;;;;;;;15.87;12.93;;;;;;;12.95;62.37;98963.31;8386267;28;20258;-63
2021/10/27 10:12:37;;;;;;;19.93;12.60;;;;;;;12.99;61.54;98966.66;8386247;28;20222;-63
2021/10/27 10:16:44;;;;;;;16.30;11.97;;;;;;;13.37;60.69;98973.00;8385304;28;20422;-63
2021/10/27 10:20:50;;;;;;;17.83;11.57;;;;;;;13.28;60.96;98958.53;8385807;28;20240;-63
2021/10/27 10:24:56;;;;;;;15.93;12.27;;;;;;;13.29;60.53;98957.66;8385666;28;20553;-63
2021/10/27 10:28:58;;;;;;;13.37;10.03;;;;;;;13.90;59.89;98956.09;8385544;28;20590;-63
2021/10/27 10:33:04;;;;;;;13.93;11.07;;;;;;;13.58;60.07;98958.28;8385503;28;20242;-63
2021/10/27 10:37:28;;;;;;;15.93;10.47;;;;;;;14.14;59.39;98956.78;8385550;28;20419;-63
2021/10/27 10:41:57;;;;;;;15.13;10.93;;;;;;;13.76;60.46;98951.44;8379379;28;20526;-63
2021/10/27 10:46:06;;;;;;;16.10;11.63;;;;;;;13.87;60.00;98953.59;8407969;28;20228;-63
2021/10/27 11:26:47;;;;;;;12.60;10.93;;;;;;;14.05;60.42;98931.13;8399948;28;20228;-70
2021/10/27 11:39:48;;;;;;;16.57;10.73;;;;;;;14.33;59.83;98920.34;8399797;28;20242;-69
2021/10/27 11:43:57;;;;;;;14.80;11.20;;;;;;;14.05;60.41;98910.28;8399643;28;20418;-67
2021/10/27 11:48:02;;;;;;;13.07;10.47;;;;;;;14.01;60.51;98906.13;8399645;28;20419;-69
2021/10/27 11:52:07;;;;;;;14.10;11.03;;;;;;;14.14;60.56;98907.28;8399507;28;20564;-69
2021/10/27 11:56:14;;;;;;;11.60;8.60;;;;;;;14.10;61.25;98900.53;8399074;28;20418;-69
2021/10/27 12:00:29;;;;;;;10.50;9.40;;;;;;;14.41;60.35;98892.22;8384841;28;20227;-69
2021/10/27 12:04:33;;;;;;;15.30;10.13;;;;;;;14.35;60.27;98886.41;8390187;28;21885;-69
2021/10/27 12:09:00;;;;;;;11.47;9.80;;;;;;;14.53;59.20;98877.78;8392520;28;20237;-69
2021/10/27 12:13:04;;;;;;;14.27;10.20;;;;;;;14.56;59.01;98877.63;8382304;28;20537;-69
2021/10/27 12:17:26;;;;;;;15.43;10.30;;;;;;;14.70;59.03;98865.72;8392107;28;20237;-69
2021/10/27 12:21:29;;;;;;;11.77;8.50;;;;;;;14.97;58.09;98864.44;8391531;28;20409;-69
2021/10/27 12:25:34;;;;;;;11.67;9.67;;;;;;;14.96;57.72;98860.13;8391842;28;20243;-69
2021/10/27 12:29:38;;;;;;;17.63;12.93;;;;;;;15.06;57.50;98855.34;8389112;28;20216;-69
2021/10/27 12:33:42;;;;;;;12.13;6.60;;;;;;;14.85;57.60;98859.81;8382035;28;20227;-69
2021/10/27 12:37:48;;;;;;;10.47;7.57;;;;;;;14.98;57.46;98852.22;8382116;28;20431;-68
2021/10/27 12:42:05;;;;;;;8.37;6.07;;;;;;;14.93;57.11;98842.03;8381837;28;20231;-69
2021/10/27 12:46:18;;;;;;;8.67;6.10;;;;;;;14.87;57.23;98837.13;8396034;28;20418;-70
2021/10/27 12:50:21;;;;;;;7.27;5.93;;;;;;;14.97;57.03;98847.94;8397699;28;20230;-69
2021/10/27 12:54:29;;;;;;;6.57;4.47;;;;;;;15.00;55.71;98833.00;8397956;28;20557;-69
2021/10/27 12:58:36;;;;;;;3.23;2.90;;;;;;;15.18;55.87;98833.84;8397575;28;20231;-70
2021/10/27 13:02:42;;;;;;;5.57;4.10;;;;;;;14.83;56.35;98830.34;8400726;28;20234;-69
2021/10/27 13:06:57;;;;;;;4.30;2.80;;;;;;;15.25;55.47;98829.19;8397968;28;20413;-65
2021/10/27 13:11:08;;;;;;;6.43;4.80;;;;;;;15.74;54.57;98831.94;8394090;28;20228;-64
2021/10/27 13:32:55;;;;;;;6.50;3.00;;;;;;;15.83;54.39;98818.41;8376081;28;20239;-64
2021/10/27 13:37:03;;;;;;;4.93;3.27;;;;;;;15.70;54.66;98819.09;8376195;28;20596;-64
2021/10/27 13:41:09;;;;;;;4.67;2.97;;;;;;;15.69;54.17;98815.66;8370453;28;20235;-63
2021/10/27 13:45:17;;;;;;;4.37;2.70;;;;;;;15.63;54.90;98813.31;8375889;28;20427;-65
2021/10/27 13:58:45;;;;;;;3.73;3.00;;;;;;;15.79;55.19;98802.97;8375145;28;20231;-65
2021/10/27 14:07:17;;;;;;;4.43;3.40;;;;;;;15.75;55.38;98799.69;8374194;28;20534;-60
2021/10/27 14:11:27;;;;;;;3.60;2.77;;;;;;;15.73;54.77;98795.44;8374203;28;20228;-61
2021/10/27 14:15:48;;;;;;;4.73;2.93;;;;;;;15.81;54.69;98795.91;8373969;28;20227;-61
2021/10/27 14:51:01;;;;;;;6.80;3.07;;;;;;;15.72;54.50;98776.31;8348410;28;20235;-62
2021/10/27 15:21:26;;;;;;;5.70;2.40;;;;;;;15.23;56.36;98748.38;8344312;28;20239;-62
2021/10/27 15:34:57;;;;;;;7.03;3.37;;;;;;;14.95;57.22;98740.25;8350496;28;20230;-65
2021/10/27 15:52:23;;;;;;;6.17;3.73;;;;;;;14.72;58.15;98747.44;8376172;28;20226;-64
2021/10/27 15:56:27;;;;;;;4.33;3.50;;;;;;;14.69;57.96;98749.34;8408888;28;20424;-64
2021/10/27 16:00:30;;;;;;;6.40;3.93;;;;;;;14.53;58.57;98749.22;8409179;28;20588;-64
2021/10/27 16:04:37;;;;;;;5.47;4.10;;;;;;;14.37;58.74;98739.50;8408987;28;20579;-64
2021/10/27 16:08:41;;;;;;;5.27;3.73;;;;;;;14.45;58.24;98742.63;8409219;28;20249;-64
2021/10/27 16:12:44;;;;;;;6.27;4.60;;;;;;;14.36;58.40;98737.84;8409020;28;20234;-65
2021/10/27 16:16:47;;;;;;;7.73;4.60;;;;;;;14.19;59.12;98735.19;8408610;28;20230;-64
2021/10/27 16:20:57;;;;;;;5.03;4.00;;;;;;;14.28;58.39;98739.97;8384902;28;20299;-64
2021/10/27 16:25:00;;;;;;;8.10;4.43;;;;;;;14.24;58.77;98739.25;8375078;28;20231;-64
2021/10/27 16:29:03;;;;;;;7.10;4.00;;;;;;;14.23;58.81;98744.53;8374874;28;20250;-64
2021/10/27 16:33:07;;;;;;;5.80;2.90;;;;;;;14.06;58.98;98748.75;8374872;28;20590;-64
2021/10/27 16:37:12;;;;;;;5.60;2.80;;;;;;;14.05;58.77;98743.63;8374944;28;20236;-63
2021/10/27 16:41:15;;;;;;;5.90;3.13;;;;;;;14.01;58.97;98740.34;8374279;28;20224;-63
2021/10/27 16:45:18;;;;;;;4.67;3.30;;;;;;;13.91;58.99;98746.03;8374318;28;20247;-64
2021/10/27 16:49:21;;;;;;;5.80;3.80;;;;;;;13.91;59.23;98743.41;8374544;28;20240;-63
2021/10/27 16:53:26;;;;;;;4.40;3.10;;;;;;;13.93;59.00;98736.38;8374528;28;20231;-63
2021/10/27 16:57:29;;;;;;;6.70;3.07;;;;;;;13.85;58.81;98742.78;8361618;28;20235;-63
2021/10/27 17:01:32;;;;;;;5.67;3.30;;;;;;;13.75;59.43;98741.50;8352240;28;20247;-64
2021/10/27 17:05:36;;;;;;;5.63;3.07;;;;;;;13.74;59.06;98749.38;8351956;28;20335;-63
2021/10/27 17:09:40;;;;;;;4.47;3.40;;;;;;;13.63;59.01;98748.13;8352217;28;20291;-63
2021/10/27 17:13:43;;;;;;;5.53;3.80;;;;;;;13.61;58.97;98746.47;8352108;28;20240;-64
2021/10/27 17:17:46;;;;;;;7.80;4.43;;;;;;;13.57;58.95;98743.16;8351774;28;20549;-64
2021/10/27 17:21:50;;;;;;;6.80;5.50;;;;;;;14.04;57.03;98749.75;8349727;28;20421;-60
2021/10/27 17:25:55;;;;;;;9.50;6.50;;;;;;;13.58;58.56;98751.84;8351885;28;20243;-60
2021/10/27 17:29:57;;;;;;;13.97;9.60;;;;;;;13.48;59.03;98759.22;8351806;28;20519;-61
2021/10/27 17:34:00;;;;;;;10.13;9.13;;;;;;;13.38;59.10;98747.50;8351640;28;20257;-60
2021/10/27 17:38:03;;;;;;;9.37;6.50;;;;;;;13.38;58.89;98752.69;8351255;28;20236;-61
2021/10/27 17:42:09;;;;;;;9.93;7.67;;;;;;;13.34;58.57;98751.97;8351327;28;20236;-60
2021/10/27 17:46:13;;;;;;;10.77;7.60;;;;;;;13.28;58.68;98755.66;8343752;28;20231;-60
2021/10/27 17:50:33;;;;;;;14.33;10.37;;;;;;;13.25;58.64;98753.19;8351179;28;20295;-60
2021/10/27 17:59:10;;;;;;;14.13;10.27;;;;;;;13.09;58.40;98758.19;8350363;28;20232;-60
2021/10/27 18:03:13;;;;;;;11.77;8.90;;;;;;;13.08;58.07;98764.31;8349703;28;20223;-61
2021/10/27 18:07:20;;;;;;;12.23;6.53;;;;;;;13.04;58.75;98760.16;8349348;28;20544;-60
2021/10/27 18:11:25;;;;;;;7.63;5.93;;;;;;;12.99;58.72;98748.25;8349985;28;20240;-60
2021/10/27 18:15:36;;;;;;;19.60;8.53;;;;;;;14.39;67.23;98757.69;8350224;28;20520;-60
2021/10/27 18:19:48;;;;;;;20.43;12.83;;;;;;;14.90;57.24;98760.50;8349808;28;20232;-59
2021/10/27 18:24:08;;;;;;;13.40;7.60;;;;;;;15.20;54.31;98763.34;8351691;28;20527;-59
2021/10/27 18:28:29;;;;;;;8.00;6.37;;;;;;;14.30;54.88;98756.38;8349625;28;20418;-67
2021/10/27 18:37:09;;;;;;;8.57;5.93;;;;;;;13.55;56.01;98746.75;8345684;28;20232;-67
2021/10/27 18:41:18;;;;;;;9.37;6.33;;;;;;;13.27;56.25;98750.53;8347838;28;20228;-66
2021/10/27 18:45:21;;;;;;;7.97;5.77;;;;;;;13.13;56.66;98751.09;8345573;28;20232;-67
2021/10/27 18:49:25;;;;;;;7.10;5.50;;;;;;;13.69;55.06;98741.78;8345308;28;20419;-67
2021/10/27 18:53:37;;;;;;;7.40;5.03;;;;;;;13.04;56.96;98748.88;8347163;28;20228;-67
2021/10/27 18:57:50;;;;;;;23.47;15.13;;;;;;;12.96;57.90;98749.22;8346598;28;20400;-66
2021/10/27 19:01:57;;;;;;;20.37;13.87;;;;;;;12.82;57.68;98746.34;8347160;28;20236;-67
2021/10/27 19:10:31;;;;;;;20.10;12.70;;;;;;;12.67;57.57;98740.00;8308757;28;20228;-66
2021/10/27 19:14:50;;;;;;;18.83;13.97;;;;;;;12.58;57.63;98742.97;8307644;28;20256;-67
2021/10/27 19:18:53;;;;;;;21.97;14.97;;;;;;;12.52;57.43;98741.47;8308870;28;20536;-67
2021/10/27 19:22:58;;;;;;;20.67;15.40;;;;;;;12.57;57.45;98746.50;8308634;28;20288;-67
2021/10/27 19:27:04;;;;;;;23.93;15.97;;;;;;;12.47;57.38;98741.66;8306725;28;20228;-67
2021/10/27 19:31:21;;;;;;;23.27;16.60;;;;;;;12.38;57.88;98736.84;8307980;28;20243;-67
2021/10/27 20:06:27;;;;;;;23.43;15.47;;;;;;;12.11;59.17;98742.19;8346233;28;20301;-66
2021/10/27 20:10:59;;;;;;;21.93;15.10;;;;;;;12.07;58.58;98744.94;8329000;28;20227;-66
2021/10/27 20:15:44;;;;;;;21.60;14.13;;;;;;;12.00;58.66;98741.75;8345496;28;20430;-67
2021/10/27 20:51:01;;;;;;;117.97;15.40;;;;;;;11.15;63.29;98729.19;8351835;28;20565;-68
2021/10/27 20:55:05;;;;;;;48.57;14.67;;;;;;;10.94;64.72;98735.94;8350745;28;20547;-68
2021/10/27 20:59:20;;;;;;;63.17;15.50;;;;;;;10.58;65.91;98735.41;8351485;28;20232;-69
2021/10/27 21:12:30;;;;;;;158.87;15.53;;;;;;;10.26;65.79;98734.69;8350023;28;20227;-69
2021/10/27 21:16:34;;;;;;;55.77;14.90;;;;;;;10.53;65.53;98734.75;8345408;28;20228;-69
2021/10/27 21:20:37;;;;;;;25.80;16.87;;;;;;;10.83;64.53;98727.69;8351549;28;20228;-69
2021/10/27 21:24:44;;;;;;;54.43;17.13;;;;;;;10.99;64.14;98727.19;8351414;28;20568;-68
2021/10/27 21:28:55;;;;;;;85.53;17.13;;;;;;;10.83;64.69;98725.09;8351488;28;20231;-68
2021/10/27 21:33:21;;;;;;;100.87;17.07;;;;;;;10.90;64.84;98717.97;8351449;28;20539;-68
2021/10/27 21:46:06;;;;;;;45.67;17.30;;;;;;;10.76;65.60;98702.91;8351090;28;20232;-69
2021/10/27 21:50:13;;;;;;;48.33;17.13;;;;;;;10.67;66.51;98696.25;8350963;28;20247;-69
2021/10/27 21:54:16;;;;;;;166.10;18.03;;;;;;;10.79;65.36;98700.19;8342096;28;20224;-69
2021/10/27 21:58:21;;;;;;;226.83;19.70;;;;;;;10.31;68.07;98693.13;8350677;28;20262;-69
2021/10/27 22:02:25;;;;;;;614.67;30.53;;;;;;;9.63;70.39;98686.53;8350481;28;20239;-68
2021/10/27 22:06:30;;;;;;;102.80;19.97;;;;;;;10.44;67.78;98683.22;8350463;28;20243;-68
2021/10/27 22:10:34;;;;;;;32.00;19.73;;;;;;;10.31;68.58;98682.78;8350347;28;20236;-69
2021/10/27 22:14:38;;;;;;;260.03;24.03;;;;;;;10.14;68.76;98678.94;8340683;28;20228;-68
2021/10/27 22:18:41;;;;;;;142.47;23.27;;;;;;;10.50;67.47;98670.06;8350183;28;20232;-68
2021/10/27 22:22:44;;;;;;;319.97;25.47;;;;;;;10.19;68.80;98671.03;8350077;28;20299;-68
2021/10/27 22:26:47;;;;;;;102.67;26.63;;;;;;;10.25;68.99;98662.22;8350013;28;20232;-67
2021/10/27 22:30:54;;;;;;;224.87;27.97;;;;;;;10.16;69.10;98673.72;8349809;28;20235;-67
2021/10/27 22:34:57;;;;;;;34.13;25.40;;;;;;;10.52;68.15;98663.94;8349537;28;20232;-66
2021/10/27 22:39:00;;;;;;;136.13;28.07;;;;;;;10.31;68.90;98659.47;8349306;28;20235;-67
2021/10/27 22:43:03;;;;;;;26.23;23.53;;;;;;;10.62;67.59;98661.88;8349100;28;20235;-67
2021/10/27 22:47:08;;;;;;;46.50;21.67;;;;;;;10.63;66.71;98666.19;8348900;28;20539;-69
2021/10/27 22:51:11;;;;;;;286.93;24.73;;;;;;;10.26;68.08;98661.31;8348930;28;20236;-68
2021/10/27 22:55:14;;;;;;;193.03;22.53;;;;;;;10.35;68.05;98648.94;8347931;28;20234;-68
2021/10/27 22:59:24;;;;;;;26.27;20.77;;;;;;;10.52;67.65;98652.75;8348885;28;20239;-67
2021/10/27 23:03:43;;;;;;;31.97;21.87;;;;;;;10.73;66.99;98649.41;8348525;28;20232;-67
2021/10/27 23:07:50;;;;;;;57.90;23.87;;;;;;;10.55;68.23;98648.31;8348417;28;20236;-67
2021/10/27 23:42:34;;;;;;;140.73;27.60;;;;;;;10.66;67.57;98629.84;8347668;28;20230;-68
2021/10/27 23:46:37;;;;;;;35.27;26.03;;;;;;;10.78;67.81;98631.16;8347467;28;20251;-68
2021/10/27 23:50:41;;;;;;;57.97;27.90;;;;;;;10.84;67.06;98630.09;8347550;28;20239;-68
2021/10/27 23:54:52;;;;;;;33.83;27.33;;;;;;;10.99;67.13;98624.38;8347805;28;20530;-68
